sensor_id;sensor_type;location;lat;lon;timestamp;temperature;humidity
30694;DHT22;17446;48.022;-1.740;2024-02-15T00:01:04;14.60;99.90
30694;DHT22;17446;48.022;-1.740;2024-02-15T00:03:30;14.60;99.90
30694;DHT22;17446;48.022;-1.740;2024-02-15T00:05:57;14.60;99.90
30694;DHT22;17446;48.022;-1.740;2024-02-15T00:08:23;14.60;99.90
30694;DHT22;17446;48.022;-1.740;2024-02-15T00:10:50;14.60;99.90
30694;DHT22;17446;48.022;-1.740;2024-02-15T00:13:15;14.60;99.90
30694;DHT22;17446;48.022;-1.740;2024-02-15T00:15:41;14.60;99.90
30694;DHT22;17446;48.022;-1.740;2024-02-15T00:18:07;14.60;99.90
30694;DHT22;17446;48.022;-1.740;2024-02-15T00:20:32;14.60;99.90
30694;DHT22;17446;48.022;-1.740;2024-02-15T00:22:59;14.60;99.90
30694;DHT22;17446;48.022;-1.740;2024-02-15T00:25:25;14.60;99.90
30694;DHT22;17446;48.022;-1.740;2024-02-15T00:27:51;14.50;99.90
30694;DHT22;17446;48.022;-1.740;2024-02-15T00:30:17;14.50;99.90
30694;DHT22;17446;48.022;-1.740;2024-02-15T00:32:42;14.50;99.90
30694;DHT22;17446;48.022;-1.740;2024-02-15T00:35:10;14.50;99.90
30694;DHT22;17446;48.022;-1.740;2024-02-15T00:37:36;14.50;99.90
30694;DHT22;17446;48.022;-1.740;2024-02-15T00:40:02;14.50;99.90
30694;DHT22;17446;48.022;-1.740;2024-02-15T00:42:29;14.50;99.90
30694;DHT22;17446;48.022;-1.740;2024-02-15T00:44:57;14.50;99.90
30694;DHT22;17446;48.022;-1.740;2024-02-15T00:47:22;14.60;99.90
30694;DHT22;17446;48.022;-1.740;2024-02-15T00:49:48;14.60;99.90
30694;DHT22;17446;48.022;-1.740;2024-02-15T00:52:15;14.50;99.90
30694;DHT22;17446;48.022;-1.740;2024-02-15T00:54:41;14.60;99.90
30694;DHT22;17446;48.022;-1.740;2024-02-15T00:57:07;14.60;99.90
30694;DHT22;17446;48.022;-1.740;2024-02-15T00:59:32;14.60;99.90
30694;DHT22;17446;48.022;-1.740;2024-02-15T01:02:01;14.60;99.90
30694;DHT22;17446;48.022;-1.740;2024-02-15T01:04:28;14.60;99.90
30694;DHT22;17446;48.022;-1.740;2024-02-15T01:06:54;14.60;99.90
30694;DHT22;17446;48.022;-1.740;2024-02-15T01:09:20;14.60;99.90
30694;DHT22;17446;48.022;-1.740;2024-02-15T01:11:46;14.60;99.90
30694;DHT22;17446;48.022;-1.740;2024-02-15T01:14:11;14.60;99.90
30694;DHT22;17446;48.022;-1.740;2024-02-15T01:16:37;14.60;99.90
30694;DHT22;17446;48.022;-1.740;2024-02-15T01:19:03;14.60;99.90
30694;DHT22;17446;48.022;-1.740;2024-02-15T01:21:30;14.60;99.90
30694;DHT22;17446;48.022;-1.740;2024-02-15T01:23:55;14.60;99.90
30694;DHT22;17446;48.022;-1.740;2024-02-15T01:26:21;14.60;99.90
30694;DHT22;17446;48.022;-1.740;2024-02-15T01:28:46;14.70;99.90
30694;DHT22;17446;48.022;-1.740;2024-02-15T01:31:13;14.70;99.90
30694;DHT22;17446;48.022;-1.740;2024-02-15T01:33:43;14.60;99.90
30694;DHT22;17446;48.022;-1.740;2024-02-15T01:36:13;14.60;99.90
30694;DHT22;17446;48.022;-1.740;2024-02-15T01:38:38;14.70;99.90
30694;DHT22;17446;48.022;-1.740;2024-02-15T01:41:04;14.70;99.90
30694;DHT22;17446;48.022;-1.740;2024-02-15T01:43:29;14.70;99.90
30694;DHT22;17446;48.022;-1.740;2024-02-15T01:45:56;14.70;99.90
30694;DHT22;17446;48.022;-1.740;2024-02-15T01:48:24;14.70;99.90
30694;DHT22;17446;48.022;-1.740;2024-02-15T01:50:50;14.60;99.90
30694;DHT22;17446;48.022;-1.740;2024-02-15T01:53:17;14.70;99.90
30694;DHT22;17446;48.022;-1.740;2024-02-15T01:55:44;14.60;99.90
30694;DHT22;17446;48.022;-1.740;2024-02-15T01:58:09;14.60;99.90
30694;DHT22;17446;48.022;-1.740;2024-02-15T02:00:36;14.60;99.90
30694;DHT22;17446;48.022;-1.740;2024-02-15T02:03:05;14.60;99.90
30694;DHT22;17446;48.022;-1.740;2024-02-15T02:05:31;14.60;99.90
30694;DHT22;17446;48.022;-1.740;2024-02-15T02:07:57;14.60;99.90
30694;DHT22;17446;48.022;-1.740;2024-02-15T02:10:29;14.60;99.90
30694;DHT22;17446;48.022;-1.740;2024-02-15T02:12:59;14.60;99.90
30694;DHT22;17446;48.022;-1.740;2024-02-15T02:15:25;14.60;99.90
30694;DHT22;17446;48.022;-1.740;2024-02-15T02:17:51;14.60;99.90
30694;DHT22;17446;48.022;-1.740;2024-02-15T02:20:17;14.60;99.90
30694;DHT22;17446;48.022;-1.740;2024-02-15T02:22:46;14.60;99.90
30694;DHT22;17446;48.022;-1.740;2024-02-15T02:25:13;14.50;99.90
30694;DHT22;17446;48.022;-1.740;2024-02-15T02:27:39;14.60;99.90
30694;DHT22;17446;48.022;-1.740;2024-02-15T02:30:15;14.60;99.90
30694;DHT22;17446;48.022;-1.740;2024-02-15T02:32:42;14.60;99.90
30694;DHT22;17446;48.022;-1.740;2024-02-15T02:35:08;14.60;99.90
30694;DHT22;17446;48.022;-1.740;2024-02-15T02:37:37;14.60;99.90
30694;DHT22;17446;48.022;-1.740;2024-02-15T02:40:07;14.50;99.90
30694;DHT22;17446;48.022;-1.740;2024-02-15T02:42:51;14.60;99.90
30694;DHT22;17446;48.022;-1.740;2024-02-15T02:45:18;14.50;99.90
30694;DHT22;17446;48.022;-1.740;2024-02-15T02:47:53;14.50;99.90
30694;DHT22;17446;48.022;-1.740;2024-02-15T02:50:21;14.50;99.90
30694;DHT22;17446;48.022;-1.740;2024-02-15T02:52:48;14.50;99.90
30694;DHT22;17446;48.022;-1.740;2024-02-15T02:55:14;14.40;99.90
30694;DHT22;17446;48.022;-1.740;2024-02-15T02:57:40;14.40;99.90
30694;DHT22;17446;48.022;-1.740;2024-02-15T03:00:12;14.40;99.90
30694;DHT22;17446;48.022;-1.740;2024-02-15T03:02:42;14.40;99.90
30694;DHT22;17446;48.022;-1.740;2024-02-15T03:05:09;14.40;99.90
30694;DHT22;17446;48.022;-1.740;2024-02-15T03:07:36;14.30;99.90
30694;DHT22;17446;48.022;-1.740;2024-02-15T03:10:03;14.30;99.90
30694;DHT22;17446;48.022;-1.740;2024-02-15T03:12:37;14.30;99.90
30694;DHT22;17446;48.022;-1.740;2024-02-15T03:15:03;14.30;99.90
30694;DHT22;17446;48.022;-1.740;2024-02-15T03:17:29;14.30;99.90
30694;DHT22;17446;48.022;-1.740;2024-02-15T03:19:57;14.30;99.90
30694;DHT22;17446;48.022;-1.740;2024-02-15T03:22:22;14.30;99.90
30694;DHT22;17446;48.022;-1.740;2024-02-15T03:24:50;14.30;99.90
30694;DHT22;17446;48.022;-1.740;2024-02-15T03:27:16;14.30;99.90
30694;DHT22;17446;48.022;-1.740;2024-02-15T03:29:41;14.20;99.90
30694;DHT22;17446;48.022;-1.740;2024-02-15T03:32:08;14.20;99.90
30694;DHT22;17446;48.022;-1.740;2024-02-15T03:34:35;14.20;99.90
30694;DHT22;17446;48.022;-1.740;2024-02-15T03:37:00;14.20;99.90
30694;DHT22;17446;48.022;-1.740;2024-02-15T03:39:29;14.10;99.90
30694;DHT22;17446;48.022;-1.740;2024-02-15T03:41:55;14.10;99.90
30694;DHT22;17446;48.022;-1.740;2024-02-15T03:44:22;14.10;99.90
30694;DHT22;17446;48.022;-1.740;2024-02-15T03:46:51;14.00;99.90
30694;DHT22;17446;48.022;-1.740;2024-02-15T03:49:18;14.00;99.90
30694;DHT22;17446;48.022;-1.740;2024-02-15T03:51:44;14.00;99.90
30694;DHT22;17446;48.022;-1.740;2024-02-15T03:54:13;14.00;99.90
30694;DHT22;17446;48.022;-1.740;2024-02-15T03:56:52;14.00;99.90
30694;DHT22;17446;48.022;-1.740;2024-02-15T03:59:21;14.00;99.90
30694;DHT22;17446;48.022;-1.740;2024-02-15T04:01:54;13.90;99.90
30694;DHT22;17446;48.022;-1.740;2024-02-15T04:04:20;13.90;99.90
30694;DHT22;17446;48.022;-1.740;2024-02-15T04:06:50;13.90;99.90
30694;DHT22;17446;48.022;-1.740;2024-02-15T04:09:17;13.90;99.90
30694;DHT22;17446;48.022;-1.740;2024-02-15T04:11:48;13.80;99.90
30694;DHT22;17446;48.022;-1.740;2024-02-15T04:14:21;13.80;99.90
30694;DHT22;17446;48.022;-1.740;2024-02-15T04:16:46;13.80;99.90
30694;DHT22;17446;48.022;-1.740;2024-02-15T04:19:12;13.80;99.90
30694;DHT22;17446;48.022;-1.740;2024-02-15T04:21:38;13.80;99.90
30694;DHT22;17446;48.022;-1.740;2024-02-15T04:24:06;13.70;99.90
30694;DHT22;17446;48.022;-1.740;2024-02-15T04:26:32;13.80;99.90
30694;DHT22;17446;48.022;-1.740;2024-02-15T04:28:58;13.80;99.90
30694;DHT22;17446;48.022;-1.740;2024-02-15T04:31:24;13.70;99.90
30694;DHT22;17446;48.022;-1.740;2024-02-15T04:33:53;13.70;99.90
30694;DHT22;17446;48.022;-1.740;2024-02-15T04:36:19;13.70;99.90
30694;DHT22;17446;48.022;-1.740;2024-02-15T04:38:49;13.70;99.90
30694;DHT22;17446;48.022;-1.740;2024-02-15T04:41:16;13.70;99.90
30694;DHT22;17446;48.022;-1.740;2024-02-15T04:43:48;13.70;99.90
30694;DHT22;17446;48.022;-1.740;2024-02-15T04:46:13;13.70;99.90
30694;DHT22;17446;48.022;-1.740;2024-02-15T04:48:40;13.70;99.90
30694;DHT22;17446;48.022;-1.740;2024-02-15T04:51:07;13.70;99.90
30694;DHT22;17446;48.022;-1.740;2024-02-15T04:53:33;13.70;99.90
30694;DHT22;17446;48.022;-1.740;2024-02-15T04:55:58;13.60;99.90
30694;DHT22;17446;48.022;-1.740;2024-02-15T04:58:26;13.60;99.90
30694;DHT22;17446;48.022;-1.740;2024-02-15T05:00:54;13.60;99.90
30694;DHT22;17446;48.022;-1.740;2024-02-15T05:03:24;13.60;99.90
30694;DHT22;17446;48.022;-1.740;2024-02-15T05:05:49;13.60;99.90
30694;DHT22;17446;48.022;-1.740;2024-02-15T05:08:15;13.60;99.90
30694;DHT22;17446;48.022;-1.740;2024-02-15T05:10:41;13.60;99.90
30694;DHT22;17446;48.022;-1.740;2024-02-15T05:13:07;13.50;99.90
30694;DHT22;17446;48.022;-1.740;2024-02-15T05:15:33;13.50;99.90
30694;DHT22;17446;48.022;-1.740;2024-02-15T05:17:59;13.50;99.90
30694;DHT22;17446;48.022;-1.740;2024-02-15T05:20:26;13.50;99.90
30694;DHT22;17446;48.022;-1.740;2024-02-15T05:22:52;13.50;99.90
30694;DHT22;17446;48.022;-1.740;2024-02-15T05:25:19;13.50;99.90
30694;DHT22;17446;48.022;-1.740;2024-02-15T05:27:48;13.50;99.90
30694;DHT22;17446;48.022;-1.740;2024-02-15T05:30:14;13.50;99.90
30694;DHT22;17446;48.022;-1.740;2024-02-15T05:32:40;13.50;99.90
30694;DHT22;17446;48.022;-1.740;2024-02-15T05:35:11;13.50;99.90
30694;DHT22;17446;48.022;-1.740;2024-02-15T05:37:37;13.50;99.90
30694;DHT22;17446;48.022;-1.740;2024-02-15T05:40:04;13.50;99.90
30694;DHT22;17446;48.022;-1.740;2024-02-15T05:42:30;13.50;99.90
30694;DHT22;17446;48.022;-1.740;2024-02-15T05:45:24;13.50;99.90
30694;DHT22;17446;48.022;-1.740;2024-02-15T05:47:45;13.50;99.90
30694;DHT22;17446;48.022;-1.740;2024-02-15T05:50:10;13.50;99.90
30694;DHT22;17446;48.022;-1.740;2024-02-15T05:52:36;13.40;99.90
30694;DHT22;17446;48.022;-1.740;2024-02-15T05:55:01;13.50;99.90
30694;DHT22;17446;48.022;-1.740;2024-02-15T05:57:28;13.40;99.90
30694;DHT22;17446;48.022;-1.740;2024-02-15T05:59:54;13.50;99.90
30694;DHT22;17446;48.022;-1.740;2024-02-15T06:02:20;13.50;99.90
30694;DHT22;17446;48.022;-1.740;2024-02-15T06:04:45;13.40;99.90
30694;DHT22;17446;48.022;-1.740;2024-02-15T06:07:11;13.50;99.90
30694;DHT22;17446;48.022;-1.740;2024-02-15T06:09:37;13.40;99.90
30694;DHT22;17446;48.022;-1.740;2024-02-15T06:12:06;13.40;99.90
30694;DHT22;17446;48.022;-1.740;2024-02-15T06:14:32;13.40;99.90
30694;DHT22;17446;48.022;-1.740;2024-02-15T06:16:57;13.40;99.90
30694;DHT22;17446;48.022;-1.740;2024-02-15T06:19:23;13.40;99.90
30694;DHT22;17446;48.022;-1.740;2024-02-15T06:21:49;13.30;99.90
30694;DHT22;17446;48.022;-1.740;2024-02-15T06:24:15;13.40;99.90
30694;DHT22;17446;48.022;-1.740;2024-02-15T06:26:41;13.30;99.90
30694;DHT22;17446;48.022;-1.740;2024-02-15T06:29:07;13.30;99.90
30694;DHT22;17446;48.022;-1.740;2024-02-15T06:31:51;13.40;99.90
30694;DHT22;17446;48.022;-1.740;2024-02-15T06:34:35;13.30;99.90
30694;DHT22;17446;48.022;-1.740;2024-02-15T06:37:36;13.30;99.90
30694;DHT22;17446;48.022;-1.740;2024-02-15T06:40:20;13.30;99.90
30694;DHT22;17446;48.022;-1.740;2024-02-15T06:42:45;13.30;99.90
30694;DHT22;17446;48.022;-1.740;2024-02-15T06:45:11;13.30;99.90
30694;DHT22;17446;48.022;-1.740;2024-02-15T06:47:41;13.30;99.90
30694;DHT22;17446;48.022;-1.740;2024-02-15T06:50:08;13.30;99.90
30694;DHT22;17446;48.022;-1.740;2024-02-15T06:52:34;13.30;99.90
30694;DHT22;17446;48.022;-1.740;2024-02-15T06:55:00;13.30;99.90
30694;DHT22;17446;48.022;-1.740;2024-02-15T06:57:26;13.30;99.90
30694;DHT22;17446;48.022;-1.740;2024-02-15T06:59:51;13.30;99.90
30694;DHT22;17446;48.022;-1.740;2024-02-15T07:02:17;13.30;99.90
30694;DHT22;17446;48.022;-1.740;2024-02-15T07:04:44;13.30;99.90
30694;DHT22;17446;48.022;-1.740;2024-02-15T07:07:10;13.30;99.90
30694;DHT22;17446;48.022;-1.740;2024-02-15T07:09:37;13.30;99.90
30694;DHT22;17446;48.022;-1.740;2024-02-15T07:12:03;13.30;99.90
30694;DHT22;17446;48.022;-1.740;2024-02-15T07:14:30;13.30;99.90
30694;DHT22;17446;48.022;-1.740;2024-02-15T07:16:55;13.30;99.90
30694;DHT22;17446;48.022;-1.740;2024-02-15T07:19:24;13.30;99.90
30694;DHT22;17446;48.022;-1.740;2024-02-15T07:21:52;13.30;99.90
30694;DHT22;17446;48.022;-1.740;2024-02-15T07:24:18;13.30;99.90
30694;DHT22;17446;48.022;-1.740;2024-02-15T07:26:44;13.30;99.90
30694;DHT22;17446;48.022;-1.740;2024-02-15T07:29:10;13.30;99.90
30694;DHT22;17446;48.022;-1.740;2024-02-15T07:31:36;13.30;99.90
30694;DHT22;17446;48.022;-1.740;2024-02-15T07:34:02;13.30;99.90
30694;DHT22;17446;48.022;-1.740;2024-02-15T07:36:28;13.30;99.90
30694;DHT22;17446;48.022;-1.740;2024-02-15T07:38:54;13.30;99.90
30694;DHT22;17446;48.022;-1.740;2024-02-15T07:41:26;13.30;99.90
30694;DHT22;17446;48.022;-1.740;2024-02-15T07:43:53;13.30;99.90
30694;DHT22;17446;48.022;-1.740;2024-02-15T07:46:21;13.30;99.90
30694;DHT22;17446;48.022;-1.740;2024-02-15T07:48:47;13.30;99.90
30694;DHT22;17446;48.022;-1.740;2024-02-15T07:51:17;13.40;99.90
30694;DHT22;17446;48.022;-1.740;2024-02-15T07:53:46;13.50;99.90
30694;DHT22;17446;48.022;-1.740;2024-02-15T07:56:13;13.50;99.90
30694;DHT22;17446;48.022;-1.740;2024-02-15T07:58:43;13.50;99.90
30694;DHT22;17446;48.022;-1.740;2024-02-15T08:01:15;13.50;99.90
30694;DHT22;17446;48.022;-1.740;2024-02-15T08:03:41;13.60;99.90
30694;DHT22;17446;48.022;-1.740;2024-02-15T08:06:13;13.70;99.90
30694;DHT22;17446;48.022;-1.740;2024-02-15T08:08:41;13.70;99.90
30694;DHT22;17446;48.022;-1.740;2024-02-15T08:11:07;13.80;99.90
30694;DHT22;17446;48.022;-1.740;2024-02-15T08:13:43;13.80;99.90
30694;DHT22;17446;48.022;-1.740;2024-02-15T08:16:09;13.80;99.90
30694;DHT22;17446;48.022;-1.740;2024-02-15T08:18:36;13.80;99.90
30694;DHT22;17446;48.022;-1.740;2024-02-15T08:21:03;13.80;99.90
30694;DHT22;17446;48.022;-1.740;2024-02-15T08:23:29;13.90;99.90
30694;DHT22;17446;48.022;-1.740;2024-02-15T08:25:55;13.90;99.90
30694;DHT22;17446;48.022;-1.740;2024-02-15T08:28:20;13.90;99.90
30694;DHT22;17446;48.022;-1.740;2024-02-15T08:30:46;14.00;99.90
30694;DHT22;17446;48.022;-1.740;2024-02-15T08:33:12;14.00;99.90
30694;DHT22;17446;48.022;-1.740;2024-02-15T08:35:38;14.10;99.90
30694;DHT22;17446;48.022;-1.740;2024-02-15T08:38:06;14.20;99.90
30694;DHT22;17446;48.022;-1.740;2024-02-15T08:40:31;14.20;99.90
30694;DHT22;17446;48.022;-1.740;2024-02-15T08:42:57;14.20;99.90
30694;DHT22;17446;48.022;-1.740;2024-02-15T08:45:22;14.30;99.90
30694;DHT22;17446;48.022;-1.740;2024-02-15T08:47:48;14.30;99.90
30694;DHT22;17446;48.022;-1.740;2024-02-15T08:50:18;14.40;99.90
30694;DHT22;17446;48.022;-1.740;2024-02-15T08:52:44;14.40;99.90
30694;DHT22;17446;48.022;-1.740;2024-02-15T08:55:10;14.50;99.90
30694;DHT22;17446;48.022;-1.740;2024-02-15T08:57:39;14.50;99.90
30694;DHT22;17446;48.022;-1.740;2024-02-15T09:00:07;14.60;99.90
30694;DHT22;17446;48.022;-1.740;2024-02-15T09:02:43;14.60;99.90
30694;DHT22;17446;48.022;-1.740;2024-02-15T09:05:09;14.70;99.90
30694;DHT22;17446;48.022;-1.740;2024-02-15T09:07:35;14.80;99.90
30694;DHT22;17446;48.022;-1.740;2024-02-15T09:10:02;14.80;99.90
30694;DHT22;17446;48.022;-1.740;2024-02-15T09:12:28;14.80;99.90
30694;DHT22;17446;48.022;-1.740;2024-02-15T09:14:54;14.90;99.90
30694;DHT22;17446;48.022;-1.740;2024-02-15T09:17:19;14.90;99.90
30694;DHT22;17446;48.022;-1.740;2024-02-15T09:19:47;14.90;99.90
30694;DHT22;17446;48.022;-1.740;2024-02-15T09:22:15;14.90;99.90
30694;DHT22;17446;48.022;-1.740;2024-02-15T09:24:40;15.00;99.90
30694;DHT22;17446;48.022;-1.740;2024-02-15T09:27:07;15.00;99.90
30694;DHT22;17446;48.022;-1.740;2024-02-15T09:29:33;15.10;99.90
30694;DHT22;17446;48.022;-1.740;2024-02-15T09:31:59;15.10;99.90
30694;DHT22;17446;48.022;-1.740;2024-02-15T09:34:27;15.20;99.90
30694;DHT22;17446;48.022;-1.740;2024-02-15T09:36:53;15.30;99.90
30694;DHT22;17446;48.022;-1.740;2024-02-15T09:39:18;15.40;99.90
30694;DHT22;17446;48.022;-1.740;2024-02-15T09:41:44;15.40;99.90
30694;DHT22;17446;48.022;-1.740;2024-02-15T09:44:10;15.50;99.90
30694;DHT22;17446;48.022;-1.740;2024-02-15T09:46:37;15.50;99.90
30694;DHT22;17446;48.022;-1.740;2024-02-15T09:49:06;15.60;99.90
30694;DHT22;17446;48.022;-1.740;2024-02-15T09:51:33;15.60;99.90
30694;DHT22;17446;48.022;-1.740;2024-02-15T09:53:59;15.60;99.90
30694;DHT22;17446;48.022;-1.740;2024-02-15T09:56:26;15.70;99.90
30694;DHT22;17446;48.022;-1.740;2024-02-15T09:58:54;15.70;99.90
30694;DHT22;17446;48.022;-1.740;2024-02-15T10:01:22;15.80;99.90
30694;DHT22;17446;48.022;-1.740;2024-02-15T10:03:49;15.90;99.90
30694;DHT22;17446;48.022;-1.740;2024-02-15T10:06:19;16.00;99.90
30694;DHT22;17446;48.022;-1.740;2024-02-15T10:08:45;16.10;99.90
30694;DHT22;17446;48.022;-1.740;2024-02-15T10:11:12;16.20;99.90
30694;DHT22;17446;48.022;-1.740;2024-02-15T10:13:38;16.20;99.90
30694;DHT22;17446;48.022;-1.740;2024-02-15T10:16:15;16.30;99.90
30694;DHT22;17446;48.022;-1.740;2024-02-15T10:18:42;16.30;99.90
30694;DHT22;17446;48.022;-1.740;2024-02-15T10:21:07;16.40;99.90
30694;DHT22;17446;48.022;-1.740;2024-02-15T10:23:34;16.40;99.90
30694;DHT22;17446;48.022;-1.740;2024-02-15T10:26:00;16.40;99.90
30694;DHT22;17446;48.022;-1.740;2024-02-15T10:28:27;16.40;99.90
30694;DHT22;17446;48.022;-1.740;2024-02-15T10:30:54;16.40;99.90
30694;DHT22;17446;48.022;-1.740;2024-02-15T10:33:26;16.40;99.90
30694;DHT22;17446;48.022;-1.740;2024-02-15T10:36:08;16.50;99.90
30694;DHT22;17446;48.022;-1.740;2024-02-15T10:38:33;16.50;99.90
30694;DHT22;17446;48.022;-1.740;2024-02-15T10:41:07;16.60;99.90
30694;DHT22;17446;48.022;-1.740;2024-02-15T10:43:34;16.60;99.90
30694;DHT22;17446;48.022;-1.740;2024-02-15T10:46:03;16.70;99.90
30694;DHT22;17446;48.022;-1.740;2024-02-15T10:48:29;16.70;99.90
30694;DHT22;17446;48.022;-1.740;2024-02-15T10:50:58;16.70;99.90
30694;DHT22;17446;48.022;-1.740;2024-02-15T10:53:28;16.70;99.90
30694;DHT22;17446;48.022;-1.740;2024-02-15T10:58:46;16.70;99.90
30694;DHT22;17446;48.022;-1.740;2024-02-15T11:01:15;16.60;99.90
30694;DHT22;17446;48.022;-1.740;2024-02-15T11:03:51;16.60;99.90
30694;DHT22;17446;48.022;-1.740;2024-02-15T11:06:19;16.60;99.90
30694;DHT22;17446;48.022;-1.740;2024-02-15T11:08:47;16.70;99.90
30694;DHT22;17446;48.022;-1.740;2024-02-15T11:11:14;16.90;99.90
30694;DHT22;17446;48.022;-1.740;2024-02-15T11:13:40;17.00;99.90
30694;DHT22;17446;48.022;-1.740;2024-02-15T11:16:08;17.20;99.90
30694;DHT22;17446;48.022;-1.740;2024-02-15T11:18:46;17.30;99.90
30694;DHT22;17446;48.022;-1.740;2024-02-15T11:21:17;17.50;99.90
30694;DHT22;17446;48.022;-1.740;2024-02-15T11:23:46;17.50;99.90
30694;DHT22;17446;48.022;-1.740;2024-02-15T11:26:43;17.50;99.90
30694;DHT22;17446;48.022;-1.740;2024-02-15T11:32:45;17.60;99.90
30694;DHT22;17446;48.022;-1.740;2024-02-15T11:35:28;17.60;99.90
30694;DHT22;17446;48.022;-1.740;2024-02-15T11:37:57;17.60;99.90
30694;DHT22;17446;48.022;-1.740;2024-02-15T11:43:09;17.70;99.90
30694;DHT22;17446;48.022;-1.740;2024-02-15T11:45:36;17.80;99.90
30694;DHT22;17446;48.022;-1.740;2024-02-15T11:48:11;17.80;99.90
30694;DHT22;17446;48.022;-1.740;2024-02-15T11:50:37;17.90;99.90
30694;DHT22;17446;48.022;-1.740;2024-02-15T11:53:05;18.00;99.90
30694;DHT22;17446;48.022;-1.740;2024-02-15T11:55:35;18.10;99.90
30694;DHT22;17446;48.022;-1.740;2024-02-15T11:58:02;18.20;99.90
30694;DHT22;17446;48.022;-1.740;2024-02-15T12:00:31;18.30;99.90
30694;DHT22;17446;48.022;-1.740;2024-02-15T12:03:16;18.40;99.90
30694;DHT22;17446;48.022;-1.740;2024-02-15T12:06:01;18.50;99.90
30694;DHT22;17446;48.022;-1.740;2024-02-15T12:08:45;18.40;99.90
30694;DHT22;17446;48.022;-1.740;2024-02-15T12:11:30;18.40;99.90
30694;DHT22;17446;48.022;-1.740;2024-02-15T12:14:15;18.30;99.90
30694;DHT22;17446;48.022;-1.740;2024-02-15T12:17:04;18.20;99.90
30694;DHT22;17446;48.022;-1.740;2024-02-15T12:19:50;18.20;99.90
30694;DHT22;17446;48.022;-1.740;2024-02-15T12:22:40;18.20;99.90
30694;DHT22;17446;48.022;-1.740;2024-02-15T12:25:07;18.20;99.90
30694;DHT22;17446;48.022;-1.740;2024-02-15T12:27:43;18.20;99.90
30694;DHT22;17446;48.022;-1.740;2024-02-15T12:30:18;18.30;99.90
30694;DHT22;17446;48.022;-1.740;2024-02-15T12:32:49;18.30;99.90
30694;DHT22;17446;48.022;-1.740;2024-02-15T12:35:20;18.30;99.90
30694;DHT22;17446;48.022;-1.740;2024-02-15T12:37:46;18.20;99.90
30694;DHT22;17446;48.022;-1.740;2024-02-15T12:40:13;18.20;99.90
30694;DHT22;17446;48.022;-1.740;2024-02-15T12:42:45;18.20;99.90
30694;DHT22;17446;48.022;-1.740;2024-02-15T12:45:22;18.10;99.90
30694;DHT22;17446;48.022;-1.740;2024-02-15T12:47:51;18.10;99.90
30694;DHT22;17446;48.022;-1.740;2024-02-15T12:50:21;18.00;99.90
30694;DHT22;17446;48.022;-1.740;2024-02-15T12:52:48;18.00;99.90
30694;DHT22;17446;48.022;-1.740;2024-02-15T12:55:19;18.00;99.90
30694;DHT22;17446;48.022;-1.740;2024-02-15T12:57:48;18.10;99.90
30694;DHT22;17446;48.022;-1.740;2024-02-15T13:00:23;18.10;99.90
30694;DHT22;17446;48.022;-1.740;2024-02-15T13:02:54;18.20;99.90
30694;DHT22;17446;48.022;-1.740;2024-02-15T13:05:21;18.30;99.90
30694;DHT22;17446;48.022;-1.740;2024-02-15T13:07:51;18.40;99.90
30694;DHT22;17446;48.022;-1.740;2024-02-15T13:10:17;18.50;99.90
30694;DHT22;17446;48.022;-1.740;2024-02-15T13:12:44;18.50;99.90
30694;DHT22;17446;48.022;-1.740;2024-02-15T13:15:14;18.50;99.90
30694;DHT22;17446;48.022;-1.740;2024-02-15T13:17:44;18.50;99.90
30694;DHT22;17446;48.022;-1.740;2024-02-15T13:20:23;18.50;99.90
30694;DHT22;17446;48.022;-1.740;2024-02-15T13:22:59;18.50;99.90
30694;DHT22;17446;48.022;-1.740;2024-02-15T13:25:36;18.60;99.90
30694;DHT22;17446;48.022;-1.740;2024-02-15T13:28:03;18.60;99.90
30694;DHT22;17446;48.022;-1.740;2024-02-15T13:30:29;18.60;99.90
30694;DHT22;17446;48.022;-1.740;2024-02-15T13:32:56;18.70;99.90
30694;DHT22;17446;48.022;-1.740;2024-02-15T13:35:21;18.70;99.90
30694;DHT22;17446;48.022;-1.740;2024-02-15T13:37:53;18.80;99.90
30694;DHT22;17446;48.022;-1.740;2024-02-15T13:40:26;18.80;99.90
30694;DHT22;17446;48.022;-1.740;2024-02-15T13:42:54;18.80;99.90
30694;DHT22;17446;48.022;-1.740;2024-02-15T13:45:28;18.90;99.90
30694;DHT22;17446;48.022;-1.740;2024-02-15T13:47:56;19.00;99.90
30694;DHT22;17446;48.022;-1.740;2024-02-15T13:50:22;19.10;99.90
30694;DHT22;17446;48.022;-1.740;2024-02-15T13:52:49;19.20;99.90
30694;DHT22;17446;48.022;-1.740;2024-02-15T13:55:17;19.30;99.90
30694;DHT22;17446;48.022;-1.740;2024-02-15T13:57:46;19.40;99.90
30694;DHT22;17446;48.022;-1.740;2024-02-15T14:00:14;19.50;99.90
30694;DHT22;17446;48.022;-1.740;2024-02-15T14:02:51;19.50;99.90
30694;DHT22;17446;48.022;-1.740;2024-02-15T14:05:17;19.60;99.90
30694;DHT22;17446;48.022;-1.740;2024-02-15T14:07:47;19.60;99.90
30694;DHT22;17446;48.022;-1.740;2024-02-15T14:10:13;19.60;99.90
30694;DHT22;17446;48.022;-1.740;2024-02-15T14:12:38;19.60;99.90
30694;DHT22;17446;48.022;-1.740;2024-02-15T14:15:04;19.60;99.90
30694;DHT22;17446;48.022;-1.740;2024-02-15T14:17:31;19.50;99.90
30694;DHT22;17446;48.022;-1.740;2024-02-15T14:19:57;19.50;99.90
30694;DHT22;17446;48.022;-1.740;2024-02-15T14:22:23;19.50;99.90
30694;DHT22;17446;48.022;-1.740;2024-02-15T14:24:49;19.40;99.90
30694;DHT22;17446;48.022;-1.740;2024-02-15T14:27:16;19.40;99.90
30694;DHT22;17446;48.022;-1.740;2024-02-15T14:29:43;19.40;99.90
30694;DHT22;17446;48.022;-1.740;2024-02-15T14:32:31;19.50;99.90
30694;DHT22;17446;48.022;-1.740;2024-02-15T14:35:15;19.50;99.90
30694;DHT22;17446;48.022;-1.740;2024-02-15T14:37:43;19.50;99.90
30694;DHT22;17446;48.022;-1.740;2024-02-15T14:40:09;19.50;99.90
30694;DHT22;17446;48.022;-1.740;2024-02-15T14:42:34;19.50;99.90
30694;DHT22;17446;48.022;-1.740;2024-02-15T14:45:01;19.60;99.90
30694;DHT22;17446;48.022;-1.740;2024-02-15T14:47:27;19.60;99.90
30694;DHT22;17446;48.022;-1.740;2024-02-15T14:49:53;19.70;99.90
30694;DHT22;17446;48.022;-1.740;2024-02-15T14:52:18;19.70;99.90
30694;DHT22;17446;48.022;-1.740;2024-02-15T14:54:44;19.80;99.90
30694;DHT22;17446;48.022;-1.740;2024-02-15T14:57:09;19.80;99.90
30694;DHT22;17446;48.022;-1.740;2024-02-15T14:59:35;19.90;99.90
30694;DHT22;17446;48.022;-1.740;2024-02-15T15:02:02;20.00;99.90
30694;DHT22;17446;48.022;-1.740;2024-02-15T15:04:34;20.10;99.90
30694;DHT22;17446;48.022;-1.740;2024-02-15T15:07:13;20.10;99.90
30694;DHT22;17446;48.022;-1.740;2024-02-15T15:09:56;20.10;99.90
30694;DHT22;17446;48.022;-1.740;2024-02-15T15:12:41;20.00;99.90
30694;DHT22;17446;48.022;-1.740;2024-02-15T15:15:11;19.80;99.90
30694;DHT22;17446;48.022;-1.740;2024-02-15T15:17:40;19.70;99.90
30694;DHT22;17446;48.022;-1.740;2024-02-15T15:20:05;19.50;99.90
30694;DHT22;17446;48.022;-1.740;2024-02-15T15:22:34;19.40;99.90
30694;DHT22;17446;48.022;-1.740;2024-02-15T15:25:00;19.40;99.90
30694;DHT22;17446;48.022;-1.740;2024-02-15T15:27:27;19.40;99.90
30694;DHT22;17446;48.022;-1.740;2024-02-15T15:29:53;19.40;99.90
30694;DHT22;17446;48.022;-1.740;2024-02-15T15:32:19;19.30;99.90